createdAt,value
2023-05-24T00:02:15.718Z,9.40
2023-05-24T00:04:42.668Z,9.40
2023-05-24T00:07:09.450Z,9.40
2023-05-24T00:09:36.307Z,9.50
2023-05-24T00:12:03.605Z,9.50
2023-05-24T00:14:30.730Z,9.50
2023-05-24T00:16:57.525Z,9.40
2023-05-24T00:19:24.873Z,9.40
2023-05-24T00:21:52.001Z,9.40
2023-05-24T00:24:18.800Z,9.30
2023-05-24T00:26:45.814Z,9.30
2023-05-24T00:29:12.717Z,9.30
2023-05-24T00:31:39.593Z,9.30
2023-05-24T00:34:06.763Z,9.30
2023-05-24T00:36:33.933Z,9.30
2023-05-24T00:39:00.860Z,9.30
2023-05-24T00:41:27.830Z,9.30
2023-05-24T00:43:54.793Z,9.40
2023-05-24T00:46:26.914Z,9.30
2023-05-24T00:48:54.387Z,9.40
2023-05-24T00:51:21.824Z,9.40
2023-05-24T00:53:49.359Z,9.40
2023-05-24T00:56:17.597Z,9.50
2023-05-24T00:58:45.048Z,9.40
2023-05-24T01:01:12.096Z,9.40
2023-05-24T01:03:39.668Z,9.40
2023-05-24T01:06:08.066Z,9.40
2023-05-24T01:08:47.825Z,9.40
2023-05-24T01:11:27.590Z,9.40
2023-05-24T01:14:14.929Z,9.40
2023-05-24T01:16:53.501Z,9.40
2023-05-24T01:19:54.152Z,9.40
2023-05-24T01:22:46.644Z,9.50
2023-05-24T01:25:25.670Z,9.60
2023-05-24T01:27:52.897Z,9.70
2023-05-24T01:30:20.666Z,9.80
2023-05-24T01:32:48.061Z,9.80
2023-05-24T01:35:14.912Z,9.80
2023-05-24T01:37:41.694Z,9.80
2023-05-24T01:40:10.211Z,9.80
2023-05-24T01:43:13.490Z,9.80
2023-05-24T01:45:50.669Z,9.80
2023-05-24T01:48:34.611Z,9.80
2023-05-24T01:51:05.712Z,9.90
2023-05-24T01:53:42.611Z,9.90
2023-05-24T01:56:11.747Z,9.90
2023-05-24T01:58:41.560Z,9.90
2023-05-24T02:01:09.119Z,9.90
2023-05-24T02:03:38.287Z,9.90
2023-05-24T02:06:05.476Z,9.80
2023-05-24T02:08:32.430Z,9.90
2023-05-24T02:10:59.169Z,9.90
2023-05-24T02:13:25.980Z,9.90
2023-05-24T02:15:53.763Z,10.00
2023-05-24T02:18:20.698Z,10.00
2023-05-24T02:20:47.411Z,10.00
2023-05-24T02:23:14.578Z,10.00
2023-05-24T02:25:41.285Z,10.00
2023-05-24T02:28:07.963Z,10.00
2023-05-24T02:30:34.762Z,10.00
2023-05-24T02:33:02.119Z,9.90
2023-05-24T02:35:28.961Z,9.90
2023-05-24T02:37:58.646Z,9.90
2023-05-24T02:40:26.212Z,9.90
2023-05-24T02:42:52.910Z,9.80
2023-05-24T02:45:19.665Z,9.80
2023-05-24T02:50:13.649Z,9.80
2023-05-24T02:52:40.438Z,9.80
2023-05-24T02:55:08.483Z,9.80
2023-05-24T02:57:35.332Z,9.90
2023-05-24T03:00:02.257Z,9.90
2023-05-24T03:02:29.278Z,9.90
2023-05-24T03:04:58.092Z,9.90
2023-05-24T03:07:24.785Z,9.90
2023-05-24T03:09:51.504Z,10.00
2023-05-24T03:12:18.273Z,10.00
2023-05-24T03:14:44.961Z,9.90
2023-05-24T03:17:11.761Z,10.00
2023-05-24T03:19:38.504Z,10.00
2023-05-24T03:22:05.351Z,10.00
2023-05-24T03:24:33.531Z,10.00
2023-05-24T03:27:01.082Z,10.00
2023-05-24T03:29:27.836Z,10.00
2023-05-24T03:31:54.612Z,9.90
2023-05-24T03:34:21.314Z,10.00
2023-05-24T03:36:48.143Z,9.90
2023-05-24T03:39:14.850Z,9.90
2023-05-24T03:41:41.621Z,10.00
2023-05-24T03:44:08.369Z,9.80
2023-05-24T03:46:35.120Z,9.90
2023-05-24T03:49:01.860Z,9.90
2023-05-24T03:51:29.818Z,9.80
2023-05-24T03:53:57.498Z,10.00
2023-05-24T03:56:24.647Z,9.90
2023-05-24T03:58:52.334Z,9.90
2023-05-24T04:01:32.659Z,9.90
2023-05-24T04:04:01.499Z,9.80
2023-05-24T04:06:29.419Z,9.90
2023-05-24T04:08:57.156Z,9.90
2023-05-24T04:11:24.350Z,9.90
2023-05-24T04:13:51.556Z,9.90
2023-05-24T04:16:18.306Z,9.90
2023-05-24T04:18:45.608Z,9.90
2023-05-24T04:21:12.477Z,10.00
2023-05-24T04:23:39.213Z,10.00
2023-05-24T04:26:06.096Z,10.00
2023-05-24T04:31:00.259Z,10.10
2023-05-24T04:33:27.752Z,10.00
2023-05-24T04:35:54.561Z,10.10
2023-05-24T04:40:49.212Z,10.10
2023-05-24T04:43:15.980Z,10.10
2023-05-24T04:45:42.674Z,10.10
2023-05-24T04:48:09.761Z,10.10
2023-05-24T04:50:37.678Z,10.10
2023-05-24T04:53:04.737Z,10.10
2023-05-24T04:55:32.596Z,10.20
2023-05-24T04:57:59.620Z,10.20
2023-05-24T05:00:26.336Z,10.20
2023-05-24T05:02:53.238Z,10.30
2023-05-24T05:05:21.270Z,10.40
2023-05-24T05:07:48.099Z,10.40
2023-05-24T05:10:14.877Z,10.40
2023-05-24T05:15:24.446Z,10.40
2023-05-24T05:17:51.329Z,10.50
2023-05-24T05:20:19.377Z,10.60
2023-05-24T05:22:47.290Z,10.60
2023-05-24T05:25:14.045Z,10.80
2023-05-24T05:27:40.905Z,10.90
2023-05-24T05:30:08.549Z,10.90
2023-05-24T05:32:36.320Z,11.10
2023-05-24T05:35:03.556Z,11.10
2023-05-24T05:37:31.206Z,11.10
2023-05-24T05:39:58.115Z,11.10
2023-05-24T05:42:25.030Z,11.20
2023-05-24T05:44:52.812Z,11.20
2023-05-24T05:47:19.674Z,11.20
2023-05-24T05:49:46.430Z,11.30
2023-05-24T05:52:13.263Z,11.40
2023-05-24T05:54:40.060Z,11.50
2023-05-24T05:57:10.416Z,11.70
2023-05-24T05:59:38.280Z,11.60
2023-05-24T06:02:06.728Z,11.60
2023-05-24T06:04:34.108Z,11.60
2023-05-24T06:07:00.994Z,11.60
2023-05-24T06:09:27.747Z,11.70
2023-05-24T06:11:54.677Z,11.80
2023-05-24T06:14:22.511Z,11.90
2023-05-24T06:16:49.594Z,12.20
2023-05-24T06:19:16.949Z,12.40
2023-05-24T06:21:48.488Z,12.60
2023-05-24T06:24:20.294Z,12.80
2023-05-24T06:26:48.192Z,12.70
2023-05-24T06:29:15.011Z,12.80
2023-05-24T06:31:42.453Z,12.80
2023-05-24T06:34:09.300Z,12.90
2023-05-24T06:36:41.300Z,13.00
2023-05-24T06:39:11.410Z,12.80
2023-05-24T06:41:39.093Z,12.80
2023-05-24T06:44:06.228Z,12.80
2023-05-24T06:46:33.332Z,13.00
2023-05-24T06:49:00.349Z,13.10
2023-05-24T06:51:27.223Z,13.20
2023-05-24T06:53:54.004Z,13.90
2023-05-24T06:56:21.491Z,13.60
2023-05-24T06:58:48.373Z,13.50
2023-05-24T07:01:15.430Z,13.60
2023-05-24T07:03:42.682Z,13.80
2023-05-24T07:06:12.238Z,13.80
2023-05-24T07:08:38.956Z,13.80
2023-05-24T07:11:06.268Z,13.90
2023-05-24T07:13:33.120Z,13.70
2023-05-24T07:15:59.941Z,13.70
2023-05-24T07:18:26.640Z,13.80
2023-05-24T07:20:54.975Z,13.80
2023-05-24T07:23:21.765Z,13.90
2023-05-24T07:25:49.457Z,13.80
2023-05-24T07:28:19.705Z,13.80
2023-05-24T07:30:46.697Z,13.80
2023-05-24T07:33:13.798Z,13.80
2023-05-24T07:35:40.697Z,13.80
2023-05-24T07:38:07.753Z,13.70
2023-05-24T07:40:34.952Z,13.70
2023-05-24T07:43:03.828Z,13.80
2023-05-24T07:45:31.361Z,13.80
2023-05-24T07:47:58.138Z,13.80
2023-05-24T07:50:25.244Z,13.90
2023-05-24T07:52:52.069Z,13.60
2023-05-24T07:55:18.816Z,13.70
2023-05-24T07:57:45.548Z,13.90
2023-05-24T08:00:14.822Z,13.80
2023-05-24T08:02:44.147Z,13.70
2023-05-24T08:05:14.231Z,13.60
2023-05-24T08:07:42.207Z,13.60
2023-05-24T08:10:14.685Z,13.40
2023-05-24T08:15:09.665Z,13.20
2023-05-24T08:17:36.895Z,13.10
2023-05-24T08:20:08.931Z,13.20
2023-05-24T08:22:37.374Z,13.00
2023-05-24T08:25:04.430Z,13.30
2023-05-24T08:27:31.223Z,13.20
2023-05-24T08:29:58.004Z,13.30
2023-05-24T08:32:24.923Z,13.30
2023-05-24T08:34:57.760Z,13.20
2023-05-24T08:37:28.429Z,13.30
2023-05-24T08:39:56.101Z,13.40
2023-05-24T08:42:25.085Z,13.60
2023-05-24T08:52:16.837Z,14.20
2023-05-24T08:54:44.366Z,14.50
2023-05-24T08:57:12.128Z,14.80
2023-05-24T08:59:42.561Z,15.40
2023-05-24T09:02:13.684Z,15.70
2023-05-24T09:04:44.223Z,16.40
2023-05-24T09:07:13.777Z,17.00
2023-05-24T09:09:46.020Z,17.70
2023-05-24T09:12:24.968Z,19.00
2023-05-24T09:15:00.496Z,20.20
2023-05-24T09:17:27.400Z,20.90
2023-05-24T09:19:54.193Z,21.50
2023-05-24T09:22:25.918Z,21.20
2023-05-24T09:24:53.709Z,21.80
2023-05-24T09:27:23.580Z,22.00
2023-05-24T09:29:51.927Z,22.50
2023-05-24T09:32:22.038Z,23.10
2023-05-24T09:34:48.909Z,22.90
2023-05-24T09:37:24.167Z,22.30
2023-05-24T09:39:54.416Z,22.20
2023-05-24T09:42:27.222Z,22.30
2023-05-24T09:45:09.417Z,22.30
2023-05-24T09:47:45.146Z,21.90
2023-05-24T09:50:15.086Z,21.30
2023-05-24T09:52:42.626Z,21.00
2023-05-24T09:55:17.682Z,20.80
2023-05-24T09:57:49.897Z,20.70
2023-05-24T10:00:22.653Z,21.10
2023-05-24T10:03:03.014Z,21.10
2023-05-24T10:05:31.195Z,21.40
2023-05-24T10:07:58.861Z,21.40
2023-05-24T10:10:29.610Z,21.40
2023-05-24T10:12:57.530Z,21.80
2023-05-24T10:15:25.250Z,22.30
2023-05-24T10:17:52.817Z,22.10
2023-05-24T10:20:19.882Z,21.70
2023-05-24T10:22:50.444Z,21.50
2023-05-24T10:25:28.527Z,21.00
2023-05-24T10:28:04.684Z,20.70
2023-05-24T10:30:41.511Z,20.70
2023-05-24T10:33:09.528Z,21.30
2023-05-24T10:35:38.242Z,21.70
2023-05-24T10:38:08.563Z,22.20
2023-05-24T10:40:35.721Z,23.70
2023-05-24T10:43:06.647Z,25.30
2023-05-24T10:45:38.853Z,24.70
2023-05-24T10:48:15.548Z,23.80
2023-05-24T10:50:43.215Z,23.80
2023-05-24T10:53:26.332Z,23.50
2023-05-24T10:56:01.129Z,22.60
2023-05-24T10:59:06.288Z,22.30
2023-05-24T11:01:33.962Z,22.00
2023-05-24T11:04:12.710Z,22.00
2023-05-24T11:06:45.953Z,22.10
2023-05-24T11:09:12.733Z,21.80
2023-05-24T11:11:39.472Z,21.50
2023-05-24T11:14:06.459Z,21.60
2023-05-24T11:16:40.466Z,21.50
2023-05-24T11:19:25.125Z,21.10
2023-05-24T11:21:58.755Z,20.80
2023-05-24T11:24:27.057Z,20.80
2023-05-24T11:26:54.122Z,20.70
2023-05-24T11:29:22.555Z,20.30
2023-05-24T11:31:58.270Z,20.00
2023-05-24T11:34:27.499Z,20.00
2023-05-24T11:36:55.383Z,20.10
2023-05-24T11:39:23.704Z,20.10
2023-05-24T11:41:50.763Z,20.30
2023-05-24T11:44:21.765Z,20.30
2023-05-24T11:46:48.591Z,20.40
2023-05-24T11:49:16.473Z,20.20
2023-05-24T11:51:43.806Z,20.20
2023-05-24T11:54:11.795Z,20.70
2023-05-24T11:56:38.842Z,21.00
2023-05-24T11:59:16.061Z,20.90
2023-05-24T12:01:43.307Z,21.60
2023-05-24T12:04:10.560Z,22.00
2023-05-24T12:06:40.285Z,22.90
2023-05-24T12:09:09.005Z,23.10
2023-05-24T12:11:40.023Z,23.30
2023-05-24T12:14:17.164Z,23.70
2023-05-24T12:16:45.474Z,23.60
2023-05-24T12:21:59.105Z,24.00
2023-05-24T12:24:27.464Z,24.00
2023-05-24T12:27:01.190Z,24.10
2023-05-24T12:29:32.410Z,24.10
2023-05-24T12:31:59.857Z,24.20
2023-05-24T12:34:26.791Z,24.30
2023-05-24T12:36:55.541Z,24.20
2023-05-24T12:39:23.594Z,24.30
2023-05-24T12:41:54.718Z,24.90
2023-05-24T12:44:26.273Z,24.70
2023-05-24T12:46:57.194Z,24.70
2023-05-24T12:49:27.239Z,24.50
2023-05-24T12:51:55.185Z,24.40
2023-05-24T12:54:29.038Z,24.00
2023-05-24T12:56:57.494Z,23.80
2023-05-24T12:59:25.595Z,23.70
2023-05-24T13:01:52.821Z,23.50
2023-05-24T13:04:21.597Z,23.60
2023-05-24T13:06:49.336Z,23.40
2023-05-24T13:09:20.795Z,23.20
2023-05-24T13:11:47.539Z,22.90
2023-05-24T13:14:16.522Z,22.30
2023-05-24T13:16:44.173Z,22.50
2023-05-24T13:19:11.808Z,22.50
2023-05-24T13:21:39.103Z,22.30
2023-05-24T13:24:06.847Z,22.30
2023-05-24T13:26:38.128Z,22.20
2023-05-24T13:31:40.713Z,22.40
2023-05-24T13:34:08.970Z,22.70
2023-05-24T13:36:36.127Z,22.60
2023-05-24T13:39:14.883Z,22.80
2023-05-24T13:41:43.056Z,22.50
2023-05-24T13:44:10.613Z,22.40
2023-05-24T13:46:37.817Z,22.70
2023-05-24T13:49:05.283Z,22.90
2023-05-24T13:51:32.978Z,22.80
2023-05-24T13:53:59.875Z,22.80
2023-05-24T13:56:32.571Z,22.50
2023-05-24T13:59:03.638Z,22.00
2023-05-24T14:01:31.181Z,21.40
2023-05-24T14:03:58.159Z,21.00
2023-05-24T14:06:24.980Z,20.70
2023-05-24T14:08:52.264Z,20.60
2023-05-24T14:11:19.709Z,20.20
2023-05-24T14:16:16.569Z,20.30
2023-05-24T14:18:43.592Z,20.40
2023-05-24T14:21:10.498Z,20.60
2023-05-24T14:23:37.325Z,20.70
2023-05-24T14:26:04.103Z,20.60
2023-05-24T14:28:30.934Z,20.60
2023-05-24T14:30:57.667Z,20.60
2023-05-24T14:33:24.529Z,20.70
2023-05-24T14:35:51.667Z,20.80
2023-05-24T14:38:18.773Z,20.80
2023-05-24T14:40:48.102Z,20.70
2023-05-24T14:43:15.298Z,20.60
2023-05-24T14:45:42.924Z,20.40
2023-05-24T14:48:11.524Z,20.10
2023-05-24T14:50:39.978Z,19.90
2023-05-24T14:53:12.035Z,19.80
2023-05-24T14:55:41.146Z,19.80
2023-05-24T14:58:12.296Z,19.80
2023-05-24T15:00:40.282Z,19.40
2023-05-24T15:03:08.110Z,19.30
2023-05-24T15:05:36.130Z,19.30
2023-05-24T15:08:03.270Z,19.30
2023-05-24T15:10:30.174Z,19.40
2023-05-24T15:12:57.033Z,19.30
2023-05-24T15:15:23.830Z,19.10
2023-05-24T15:17:50.608Z,18.90
2023-05-24T15:20:17.485Z,18.60
2023-05-24T15:22:44.290Z,18.30
2023-05-24T15:25:11.404Z,18.10
2023-05-24T15:27:38.744Z,17.90
2023-05-24T15:30:06.359Z,17.90
2023-05-24T15:32:33.103Z,17.70
2023-05-24T15:35:02.720Z,17.60
2023-05-24T15:37:29.545Z,17.60
2023-05-24T15:39:56.383Z,17.60
2023-05-24T15:42:25.192Z,17.70
2023-05-24T15:44:51.932Z,17.70
2023-05-24T15:47:21.233Z,17.70
2023-05-24T15:49:49.808Z,17.60
2023-05-24T15:52:16.834Z,17.40
2023-05-24T15:54:43.635Z,17.20
2023-05-24T15:57:10.858Z,17.10
2023-05-24T15:59:38.675Z,17.00
2023-05-24T16:02:09.074Z,17.10
2023-05-24T16:04:35.952Z,17.20
2023-05-24T16:07:03.132Z,17.40
2023-05-24T16:09:29.858Z,17.40
2023-05-24T16:11:56.616Z,17.50
2023-05-24T16:14:23.371Z,17.60
2023-05-24T16:16:50.294Z,17.60
2023-05-24T16:19:17.088Z,17.50
2023-05-24T16:21:43.925Z,17.30
2023-05-24T16:24:10.819Z,17.00
2023-05-24T16:26:37.788Z,16.80
2023-05-24T16:29:06.513Z,16.60
2023-05-24T16:31:33.268Z,16.50
2023-05-24T16:34:00.914Z,16.50
2023-05-24T16:36:27.729Z,16.40
2023-05-24T16:38:54.469Z,16.40
2023-05-24T16:41:21.277Z,16.50
2023-05-24T16:43:48.135Z,16.50
2023-05-24T16:46:15.001Z,16.50
2023-05-24T16:48:43.049Z,16.60
2023-05-24T16:51:09.916Z,16.50
2023-05-24T16:53:36.817Z,16.60
2023-05-24T16:56:03.546Z,16.60
2023-05-24T16:58:31.218Z,16.50
2023-05-24T17:00:58.682Z,16.50
2023-05-24T17:03:28.940Z,16.50
2023-05-24T17:06:01.914Z,16.50
2023-05-24T17:08:34.233Z,16.50
2023-05-24T17:11:01.284Z,16.40
2023-05-24T17:13:28.137Z,16.30
2023-05-24T17:15:55.550Z,16.30
2023-05-24T17:18:29.824Z,16.20
2023-05-24T17:21:06.820Z,16.20
2023-05-24T17:23:36.650Z,16.10
2023-05-24T17:26:04.425Z,16.00
2023-05-24T17:28:31.455Z,16.00
2023-05-24T17:31:00.212Z,15.90
2023-05-24T17:33:29.100Z,15.90
2023-05-24T17:35:56.863Z,15.80
2023-05-24T17:38:25.004Z,15.60
2023-05-24T17:40:58.952Z,15.60
2023-05-24T17:43:31.648Z,15.50
2023-05-24T17:46:08.737Z,15.40
2023-05-24T17:48:37.012Z,15.30
2023-05-24T17:51:06.448Z,15.20
2023-05-24T17:53:34.938Z,15.10
2023-05-24T17:56:02.641Z,14.90
2023-05-24T17:58:35.669Z,14.80
2023-05-24T18:01:06.996Z,14.70
2023-05-24T18:03:36.958Z,14.50
2023-05-24T19:07:50.340Z,12.60
2023-05-24T19:12:44.495Z,12.50
2023-05-24T19:15:11.908Z,12.40
2023-05-24T19:17:38.634Z,12.30
2023-05-24T19:20:07.041Z,12.10
2023-05-24T19:22:33.840Z,12.10
2023-05-24T19:25:00.959Z,12.00
2023-05-24T19:27:28.388Z,12.00
2023-05-24T19:29:55.170Z,11.80
2023-05-24T19:32:22.451Z,11.70
2023-05-24T19:34:49.354Z,11.70
2023-05-24T19:37:16.099Z,11.60
2023-05-24T19:39:42.916Z,11.40
2023-05-24T19:42:10.781Z,11.40
2023-05-24T19:49:32.160Z,11.10
2023-05-24T19:56:55.851Z,10.80
2023-05-24T19:59:22.781Z,10.70
2023-05-24T20:01:49.511Z,10.70
2023-05-24T20:04:16.330Z,10.70
2023-05-24T20:06:43.072Z,10.60
2023-05-24T20:09:09.892Z,10.50
2023-05-24T20:11:36.621Z,10.40
2023-05-24T20:14:03.426Z,10.40
2023-05-24T20:16:31.024Z,10.30
2023-05-24T20:18:57.922Z,10.30
2023-05-24T20:21:24.714Z,10.40
2023-05-24T20:23:57.714Z,10.10
2023-05-24T20:26:25.937Z,10.10
2023-05-24T20:28:52.700Z,10.00
2023-05-24T20:31:19.578Z,10.00
2023-05-24T20:33:46.395Z,9.80
2023-05-24T20:36:15.056Z,9.80
2023-05-24T20:38:41.928Z,9.70
2023-05-24T20:41:08.826Z,9.60
2023-05-24T20:43:35.588Z,9.50
2023-05-24T20:46:02.447Z,9.60
2023-05-24T20:48:29.156Z,9.40
2023-05-24T20:50:55.957Z,9.40
2023-05-24T20:53:22.770Z,9.40
2023-05-24T20:55:49.779Z,9.30
2023-05-24T20:58:17.746Z,9.30
2023-05-24T21:00:44.578Z,9.20
2023-05-24T21:03:11.485Z,9.40
2023-05-24T21:05:40.128Z,9.10
2023-05-24T21:08:07.083Z,9.00
2023-05-24T21:10:33.968Z,9.00
2023-05-24T21:13:00.735Z,9.00
2023-05-24T21:15:27.478Z,8.90
2023-05-24T21:17:54.229Z,8.80
2023-05-24T21:20:21.221Z,8.80
2023-05-24T21:22:48.111Z,8.70
2023-05-24T21:25:15.206Z,8.70
2023-05-24T21:27:41.911Z,8.60
2023-05-24T21:30:09.088Z,8.60
2023-05-24T21:32:35.834Z,8.60
2023-05-24T21:35:02.562Z,8.40
2023-05-24T21:37:29.257Z,8.40
2023-05-24T21:39:56.074Z,8.30
2023-05-24T21:42:22.882Z,8.20
2023-05-24T21:44:49.586Z,8.20
2023-05-24T21:47:16.374Z,8.10
2023-05-24T21:49:43.163Z,8.10
2023-05-24T21:52:09.944Z,8.10
2023-05-24T21:54:36.672Z,8.00
2023-05-24T21:57:03.769Z,8.00
2023-05-24T21:59:30.478Z,8.00
2023-05-24T22:01:57.272Z,7.90
2023-05-24T22:04:39.299Z,7.80
2023-05-24T22:07:06.514Z,7.80
2023-05-24T22:09:33.217Z,7.80
2023-05-24T22:12:00.806Z,7.70
2023-05-24T22:16:54.862Z,7.70
2023-05-24T22:19:38.364Z,7.70
2023-05-24T22:22:06.104Z,7.80
2023-05-24T22:24:33.103Z,7.70
2023-05-24T22:27:01.084Z,7.60
2023-05-24T22:29:28.274Z,7.60
2023-05-24T22:31:55.274Z,7.60
2023-05-24T22:34:28.923Z,7.50
2023-05-24T22:36:57.513Z,7.50
2023-05-24T22:39:24.572Z,7.50
2023-05-24T22:41:52.644Z,7.40
2023-05-24T22:44:19.857Z,7.40
2023-05-24T22:46:50.079Z,7.40
2023-05-24T22:49:19.796Z,7.30
2023-05-24T22:51:48.328Z,7.30
2023-05-24T22:54:15.865Z,7.30
2023-05-24T22:56:43.760Z,7.10
2023-05-24T22:59:11.219Z,7.10
2023-05-24T23:01:38.127Z,7.10
2023-05-24T23:04:19.847Z,7.10
2023-05-24T23:06:49.430Z,7.10
2023-05-24T23:09:17.643Z,7.10
2023-05-24T23:11:44.506Z,7.10
2023-05-24T23:14:11.457Z,7.00
2023-05-24T23:16:45.536Z,6.90
2023-05-24T23:19:18.473Z,6.80
